sensor_id;sensor_type;location;lat;lon;timestamp;P1;durP1;ratioP1;P2;durP2;ratioP2
13404;SDS011;6773;51.192;7.024;2022-11-15T00:01:49;12.47;;;7.90;;
13404;SDS011;6773;51.192;7.024;2022-11-15T00:04:15;10.63;;;8.33;;
13404;SDS011;6773;51.192;7.024;2022-11-15T00:06:41;8.90;;;7.27;;
13404;SDS011;6773;51.192;7.024;2022-11-15T00:09:06;11.30;;;7.90;;
13404;SDS011;6773;51.192;7.024;2022-11-15T00:11:32;9.33;;;7.30;;
13404;SDS011;6773;51.192;7.024;2022-11-15T00:13:58;8.50;;;7.07;;
13404;SDS011;6773;51.192;7.024;2022-11-15T00:16:24;10.83;;;7.43;;
13404;SDS011;6773;51.192;7.024;2022-11-15T00:18:50;9.87;;;7.43;;
13404;SDS011;6773;51.192;7.024;2022-11-15T00:21:16;7.97;;;7.10;;
13404;SDS011;6773;51.192;7.024;2022-11-15T00:23:42;9.63;;;6.73;;
13404;SDS011;6773;51.192;7.024;2022-11-15T00:26:12;8.60;;;6.63;;
13404;SDS011;6773;51.192;7.024;2022-11-15T00:28:39;8.90;;;6.83;;
13404;SDS011;6773;51.192;7.024;2022-11-15T00:31:06;8.63;;;6.97;;
13404;SDS011;6773;51.192;7.024;2022-11-15T00:33:33;7.47;;;6.47;;
13404;SDS011;6773;51.192;7.024;2022-11-15T00:36:03;8.93;;;7.40;;
13404;SDS011;6773;51.192;7.024;2022-11-15T00:38:31;12.30;;;7.87;;
13404;SDS011;6773;51.192;7.024;2022-11-15T00:40:58;9.07;;;6.73;;
13404;SDS011;6773;51.192;7.024;2022-11-15T00:43:24;9.23;;;7.03;;
13404;SDS011;6773;51.192;7.024;2022-11-15T00:45:49;9.73;;;7.03;;
13404;SDS011;6773;51.192;7.024;2022-11-15T00:48:15;8.50;;;6.13;;
13404;SDS011;6773;51.192;7.024;2022-11-15T00:50:41;9.53;;;7.40;;
13404;SDS011;6773;51.192;7.024;2022-11-15T00:53:07;7.97;;;6.47;;
13404;SDS011;6773;51.192;7.024;2022-11-15T00:55:32;7.07;;;5.87;;
13404;SDS011;6773;51.192;7.024;2022-11-15T00:57:58;8.00;;;6.27;;
13404;SDS011;6773;51.192;7.024;2022-11-15T01:00:24;8.50;;;6.30;;
13404;SDS011;6773;51.192;7.024;2022-11-15T01:02:50;9.80;;;7.53;;
13404;SDS011;6773;51.192;7.024;2022-11-15T01:05:16;11.67;;;7.33;;
13404;SDS011;6773;51.192;7.024;2022-11-15T01:07:41;10.10;;;6.60;;
13404;SDS011;6773;51.192;7.024;2022-11-15T01:10:07;9.17;;;6.33;;
13404;SDS011;6773;51.192;7.024;2022-11-15T01:12:34;11.00;;;6.90;;
13404;SDS011;6773;51.192;7.024;2022-11-15T01:15:00;9.07;;;6.53;;
13404;SDS011;6773;51.192;7.024;2022-11-15T01:17:26;11.40;;;7.03;;
13404;SDS011;6773;51.192;7.024;2022-11-15T01:19:52;7.57;;;6.57;;
13404;SDS011;6773;51.192;7.024;2022-11-15T01:22:17;9.60;;;6.37;;
13404;SDS011;6773;51.192;7.024;2022-11-15T01:24:43;8.90;;;6.80;;
13404;SDS011;6773;51.192;7.024;2022-11-15T01:27:09;7.70;;;6.20;;
13404;SDS011;6773;51.192;7.024;2022-11-15T01:29:35;8.17;;;5.40;;
13404;SDS011;6773;51.192;7.024;2022-11-15T01:32:01;8.60;;;6.13;;
13404;SDS011;6773;51.192;7.024;2022-11-15T01:34:26;7.37;;;5.90;;
13404;SDS011;6773;51.192;7.024;2022-11-15T01:36:52;8.63;;;6.93;;
13404;SDS011;6773;51.192;7.024;2022-11-15T01:39:18;9.47;;;6.10;;
13404;SDS011;6773;51.192;7.024;2022-11-15T01:41:44;9.40;;;6.23;;
13404;SDS011;6773;51.192;7.024;2022-11-15T01:46:54;7.53;;;6.00;;
13404;SDS011;6773;51.192;7.024;2022-11-15T01:49:21;7.40;;;6.10;;
13404;SDS011;6773;51.192;7.024;2022-11-15T01:51:48;8.37;;;6.40;;
13404;SDS011;6773;51.192;7.024;2022-11-15T01:54:14;9.70;;;6.03;;
13404;SDS011;6773;51.192;7.024;2022-11-15T01:56:45;8.57;;;6.10;;
13404;SDS011;6773;51.192;7.024;2022-11-15T01:59:17;6.67;;;5.93;;
13404;SDS011;6773;51.192;7.024;2022-11-15T02:01:43;7.23;;;5.90;;
13404;SDS011;6773;51.192;7.024;2022-11-15T02:04:16;7.80;;;5.83;;
13404;SDS011;6773;51.192;7.024;2022-11-15T02:06:49;8.57;;;6.43;;
13404;SDS011;6773;51.192;7.024;2022-11-15T02:09:15;9.70;;;6.13;;
13404;SDS011;6773;51.192;7.024;2022-11-15T02:11:41;7.53;;;6.40;;
13404;SDS011;6773;51.192;7.024;2022-11-15T02:14:08;9.47;;;6.33;;
13404;SDS011;6773;51.192;7.024;2022-11-15T02:22:14;9.67;;;6.80;;
13404;SDS011;6773;51.192;7.024;2022-11-15T02:24:35;11.63;;;6.33;;
13404;SDS011;6773;51.192;7.024;2022-11-15T02:33:00;8.27;;;6.67;;
13404;SDS011;6773;51.192;7.024;2022-11-15T02:35:37;8.57;;;6.07;;
13404;SDS011;6773;51.192;7.024;2022-11-15T02:38:21;8.77;;;6.60;;
13404;SDS011;6773;51.192;7.024;2022-11-15T02:41:02;9.80;;;6.87;;
13404;SDS011;6773;51.192;7.024;2022-11-15T02:46:35;8.03;;;6.30;;
13404;SDS011;6773;51.192;7.024;2022-11-15T02:49:26;9.83;;;6.93;;
13404;SDS011;6773;51.192;7.024;2022-11-15T02:51:55;8.50;;;6.17;;
13404;SDS011;6773;51.192;7.024;2022-11-15T02:54:22;9.83;;;6.70;;
13404;SDS011;6773;51.192;7.024;2022-11-15T02:56:51;7.40;;;6.40;;
13404;SDS011;6773;51.192;7.024;2022-11-15T02:59:24;8.73;;;6.43;;
13404;SDS011;6773;51.192;7.024;2022-11-15T03:07:19;8.00;;;6.23;;
13404;SDS011;6773;51.192;7.024;2022-11-15T03:10:08;7.17;;;6.20;;
13404;SDS011;6773;51.192;7.024;2022-11-15T03:12:57;9.63;;;6.60;;
13404;SDS011;6773;51.192;7.024;2022-11-15T03:15:35;10.20;;;6.50;;
13404;SDS011;6773;51.192;7.024;2022-11-15T03:18:10;8.03;;;5.83;;
13404;SDS011;6773;51.192;7.024;2022-11-15T03:20:44;8.30;;;6.47;;
13404;SDS011;6773;51.192;7.024;2022-11-15T03:23:11;9.93;;;6.77;;
13404;SDS011;6773;51.192;7.024;2022-11-15T03:25:40;7.50;;;6.13;;
13404;SDS011;6773;51.192;7.024;2022-11-15T03:28:09;7.40;;;6.10;;
13404;SDS011;6773;51.192;7.024;2022-11-15T03:30:38;7.00;;;5.97;;
13404;SDS011;6773;51.192;7.024;2022-11-15T03:33:04;8.20;;;5.67;;
13404;SDS011;6773;51.192;7.024;2022-11-15T03:35:33;8.73;;;6.40;;
13404;SDS011;6773;51.192;7.024;2022-11-15T03:38:14;8.70;;;5.90;;
13404;SDS011;6773;51.192;7.024;2022-11-15T03:40:42;7.43;;;6.33;;
13404;SDS011;6773;51.192;7.024;2022-11-15T03:46:02;8.67;;;6.20;;
13404;SDS011;6773;51.192;7.024;2022-11-15T03:48:37;8.63;;;6.13;;
13404;SDS011;6773;51.192;7.024;2022-11-15T03:51:07;9.00;;;6.53;;
13404;SDS011;6773;51.192;7.024;2022-11-15T03:53:33;6.93;;;6.20;;
13404;SDS011;6773;51.192;7.024;2022-11-15T03:55:59;9.20;;;6.43;;
13404;SDS011;6773;51.192;7.024;2022-11-15T03:58:24;8.00;;;6.73;;
13404;SDS011;6773;51.192;7.024;2022-11-15T04:00:50;6.80;;;6.03;;
13404;SDS011;6773;51.192;7.024;2022-11-15T04:03:16;7.90;;;6.40;;
13404;SDS011;6773;51.192;7.024;2022-11-15T04:05:42;8.57;;;5.77;;
13404;SDS011;6773;51.192;7.024;2022-11-15T04:08:08;6.33;;;5.40;;
13404;SDS011;6773;51.192;7.024;2022-11-15T04:10:33;6.93;;;5.63;;
13404;SDS011;6773;51.192;7.024;2022-11-15T04:12:59;10.07;;;5.90;;
13404;SDS011;6773;51.192;7.024;2022-11-15T04:15:26;5.80;;;5.20;;
13404;SDS011;6773;51.192;7.024;2022-11-15T04:17:54;7.90;;;5.80;;
13404;SDS011;6773;51.192;7.024;2022-11-15T04:20:25;7.77;;;5.50;;
13404;SDS011;6773;51.192;7.024;2022-11-15T04:23:13;6.70;;;5.27;;
13404;SDS011;6773;51.192;7.024;2022-11-15T04:25:59;6.03;;;5.30;;
13404;SDS011;6773;51.192;7.024;2022-11-15T04:28:27;9.07;;;5.87;;
13404;SDS011;6773;51.192;7.024;2022-11-15T04:30:52;6.93;;;5.70;;
13404;SDS011;6773;51.192;7.024;2022-11-15T04:33:18;6.97;;;5.97;;
13404;SDS011;6773;51.192;7.024;2022-11-15T04:35:44;8.03;;;5.90;;
13404;SDS011;6773;51.192;7.024;2022-11-15T04:38:30;7.73;;;6.33;;
13404;SDS011;6773;51.192;7.024;2022-11-15T04:40:55;8.77;;;6.67;;
13404;SDS011;6773;51.192;7.024;2022-11-15T04:43:21;9.33;;;6.53;;
13404;SDS011;6773;51.192;7.024;2022-11-15T04:45:47;7.50;;;6.23;;
13404;SDS011;6773;51.192;7.024;2022-11-15T04:48:13;8.93;;;6.63;;
13404;SDS011;6773;51.192;7.024;2022-11-15T04:50:39;7.93;;;6.70;;
13404;SDS011;6773;51.192;7.024;2022-11-15T04:53:04;10.10;;;7.40;;
13404;SDS011;6773;51.192;7.024;2022-11-15T04:55:31;8.20;;;7.40;;
13404;SDS011;6773;51.192;7.024;2022-11-15T04:57:57;8.40;;;6.53;;
13404;SDS011;6773;51.192;7.024;2022-11-15T05:00:24;8.60;;;6.47;;
13404;SDS011;6773;51.192;7.024;2022-11-15T05:02:51;7.57;;;6.70;;
13404;SDS011;6773;51.192;7.024;2022-11-15T05:05:35;6.60;;;5.90;;
13404;SDS011;6773;51.192;7.024;2022-11-15T05:08:01;8.23;;;7.00;;
13404;SDS011;6773;51.192;7.024;2022-11-15T05:10:27;7.27;;;5.83;;
13404;SDS011;6773;51.192;7.024;2022-11-15T05:12:53;6.63;;;6.00;;
13404;SDS011;6773;51.192;7.024;2022-11-15T05:15:18;6.67;;;5.97;;
13404;SDS011;6773;51.192;7.024;2022-11-15T05:17:44;9.20;;;5.93;;
13404;SDS011;6773;51.192;7.024;2022-11-15T05:20:10;8.87;;;6.20;;
13404;SDS011;6773;51.192;7.024;2022-11-15T05:22:36;8.47;;;6.27;;
13404;SDS011;6773;51.192;7.024;2022-11-15T05:25:02;6.93;;;6.20;;
13404;SDS011;6773;51.192;7.024;2022-11-15T05:27:27;6.87;;;5.13;;
13404;SDS011;6773;51.192;7.024;2022-11-15T05:29:53;8.20;;;5.43;;
13404;SDS011;6773;51.192;7.024;2022-11-15T05:32:18;6.53;;;5.60;;
13404;SDS011;6773;51.192;7.024;2022-11-15T05:34:45;5.60;;;5.03;;
13404;SDS011;6773;51.192;7.024;2022-11-15T05:37:11;6.87;;;5.00;;
13404;SDS011;6773;51.192;7.024;2022-11-15T05:39:38;8.10;;;5.70;;
13404;SDS011;6773;51.192;7.024;2022-11-15T05:44:36;5.07;;;4.57;;
13404;SDS011;6773;51.192;7.024;2022-11-15T05:47:04;4.53;;;4.10;;
13404;SDS011;6773;51.192;7.024;2022-11-15T05:49:34;5.03;;;4.60;;
13404;SDS011;6773;51.192;7.024;2022-11-15T05:52:04;4.67;;;4.10;;
13404;SDS011;6773;51.192;7.024;2022-11-15T05:54:31;5.53;;;4.73;;
13404;SDS011;6773;51.192;7.024;2022-11-15T05:56:57;5.20;;;4.13;;
13404;SDS011;6773;51.192;7.024;2022-11-15T05:59:23;5.07;;;4.00;;
13404;SDS011;6773;51.192;7.024;2022-11-15T06:01:49;4.73;;;4.07;;
13404;SDS011;6773;51.192;7.024;2022-11-15T06:04:15;4.10;;;3.60;;
13404;SDS011;6773;51.192;7.024;2022-11-15T06:06:41;4.50;;;4.10;;
13404;SDS011;6773;51.192;7.024;2022-11-15T06:09:06;4.20;;;3.80;;
13404;SDS011;6773;51.192;7.024;2022-11-15T06:11:32;4.63;;;4.00;;
13404;SDS011;6773;51.192;7.024;2022-11-15T06:13:58;5.63;;;4.13;;
13404;SDS011;6773;51.192;7.024;2022-11-15T06:16:23;4.43;;;4.03;;
13404;SDS011;6773;51.192;7.024;2022-11-15T06:18:49;4.20;;;3.67;;
13404;SDS011;6773;51.192;7.024;2022-11-15T06:21:15;4.83;;;3.93;;
13404;SDS011;6773;51.192;7.024;2022-11-15T06:23:40;5.43;;;4.93;;
13404;SDS011;6773;51.192;7.024;2022-11-15T06:26:06;6.97;;;5.67;;
13404;SDS011;6773;51.192;7.024;2022-11-15T06:28:32;10.00;;;7.23;;
13404;SDS011;6773;51.192;7.024;2022-11-15T06:31:08;12.47;;;7.57;;
13404;SDS011;6773;51.192;7.024;2022-11-15T06:33:36;7.73;;;5.60;;
13404;SDS011;6773;51.192;7.024;2022-11-15T06:36:02;5.33;;;4.77;;
13404;SDS011;6773;51.192;7.024;2022-11-15T06:38:30;6.13;;;4.93;;
13404;SDS011;6773;51.192;7.024;2022-11-15T06:41:03;3.97;;;3.67;;
13404;SDS011;6773;51.192;7.024;2022-11-15T06:43:30;6.10;;;4.53;;
13404;SDS011;6773;51.192;7.024;2022-11-15T06:45:57;3.53;;;3.20;;
13404;SDS011;6773;51.192;7.024;2022-11-15T06:48:24;5.07;;;3.77;;
13404;SDS011;6773;51.192;7.024;2022-11-15T06:50:53;4.17;;;3.77;;
13404;SDS011;6773;51.192;7.024;2022-11-15T06:53:19;4.57;;;3.93;;
13404;SDS011;6773;51.192;7.024;2022-11-15T06:55:45;6.40;;;3.90;;
13404;SDS011;6773;51.192;7.024;2022-11-15T06:58:11;4.10;;;3.67;;
13404;SDS011;6773;51.192;7.024;2022-11-15T07:00:37;4.07;;;3.40;;
13404;SDS011;6773;51.192;7.024;2022-11-15T07:03:03;4.90;;;3.17;;
13404;SDS011;6773;51.192;7.024;2022-11-15T07:05:28;5.43;;;3.30;;
13404;SDS011;6773;51.192;7.024;2022-11-15T07:07:55;3.50;;;3.20;;
13404;SDS011;6773;51.192;7.024;2022-11-15T07:10:22;4.20;;;2.93;;
13404;SDS011;6773;51.192;7.024;2022-11-15T07:12:49;4.87;;;3.33;;
13404;SDS011;6773;51.192;7.024;2022-11-15T07:15:16;3.30;;;3.00;;
13404;SDS011;6773;51.192;7.024;2022-11-15T07:17:45;3.43;;;3.13;;
13404;SDS011;6773;51.192;7.024;2022-11-15T07:20:11;3.80;;;3.37;;
13404;SDS011;6773;51.192;7.024;2022-11-15T07:22:38;3.20;;;2.90;;
13404;SDS011;6773;51.192;7.024;2022-11-15T07:25:04;3.13;;;2.70;;
13404;SDS011;6773;51.192;7.024;2022-11-15T07:27:30;3.37;;;3.03;;
13404;SDS011;6773;51.192;7.024;2022-11-15T07:29:55;2.97;;;2.67;;
13404;SDS011;6773;51.192;7.024;2022-11-15T07:32:21;3.37;;;3.07;;
13404;SDS011;6773;51.192;7.024;2022-11-15T07:34:47;4.43;;;3.17;;
13404;SDS011;6773;51.192;7.024;2022-11-15T07:37:12;2.80;;;2.60;;
13404;SDS011;6773;51.192;7.024;2022-11-15T07:39:38;2.87;;;2.40;;
13404;SDS011;6773;51.192;7.024;2022-11-15T07:42:04;2.50;;;2.30;;
13404;SDS011;6773;51.192;7.024;2022-11-15T07:44:48;2.93;;;2.60;;
13404;SDS011;6773;51.192;7.024;2022-11-15T07:47:14;2.60;;;2.40;;
13404;SDS011;6773;51.192;7.024;2022-11-15T07:49:39;2.70;;;2.50;;
13404;SDS011;6773;51.192;7.024;2022-11-15T07:52:05;2.67;;;2.40;;
13404;SDS011;6773;51.192;7.024;2022-11-15T07:54:31;3.03;;;2.63;;
13404;SDS011;6773;51.192;7.024;2022-11-15T07:56:56;3.03;;;2.40;;
13404;SDS011;6773;51.192;7.024;2022-11-15T07:59:22;2.40;;;2.20;;
13404;SDS011;6773;51.192;7.024;2022-11-15T08:01:48;3.80;;;2.60;;
13404;SDS011;6773;51.192;7.024;2022-11-15T08:04:14;3.30;;;3.00;;
13404;SDS011;6773;51.192;7.024;2022-11-15T08:06:39;3.47;;;2.70;;
13404;SDS011;6773;51.192;7.024;2022-11-15T08:09:05;3.03;;;2.73;;
13404;SDS011;6773;51.192;7.024;2022-11-15T08:11:30;2.53;;;2.33;;
13404;SDS011;6773;51.192;7.024;2022-11-15T08:13:56;3.33;;;2.90;;
13404;SDS011;6773;51.192;7.024;2022-11-15T08:16:22;3.77;;;3.47;;
13404;SDS011;6773;51.192;7.024;2022-11-15T08:18:48;3.50;;;2.63;;
13404;SDS011;6773;51.192;7.024;2022-11-15T08:21:14;4.33;;;3.53;;
13404;SDS011;6773;51.192;7.024;2022-11-15T08:23:44;3.30;;;3.00;;
13404;SDS011;6773;51.192;7.024;2022-11-15T08:26:10;2.80;;;2.60;;
13404;SDS011;6773;51.192;7.024;2022-11-15T08:28:35;3.70;;;2.93;;
13404;SDS011;6773;51.192;7.024;2022-11-15T08:31:02;3.10;;;2.63;;
13404;SDS011;6773;51.192;7.024;2022-11-15T08:33:28;3.93;;;3.00;;
13404;SDS011;6773;51.192;7.024;2022-11-15T08:35:57;2.77;;;2.57;;
13404;SDS011;6773;51.192;7.024;2022-11-15T08:38:23;5.63;;;3.20;;
13404;SDS011;6773;51.192;7.024;2022-11-15T08:40:53;3.23;;;2.90;;
13404;SDS011;6773;51.192;7.024;2022-11-15T08:43:25;7.50;;;4.23;;
13404;SDS011;6773;51.192;7.024;2022-11-15T08:45:51;6.07;;;4.23;;
13404;SDS011;6773;51.192;7.024;2022-11-15T08:48:16;6.33;;;4.13;;
13404;SDS011;6773;51.192;7.024;2022-11-15T08:50:42;5.27;;;3.30;;
13404;SDS011;6773;51.192;7.024;2022-11-15T08:53:08;6.10;;;3.83;;
13404;SDS011;6773;51.192;7.024;2022-11-15T08:55:39;3.90;;;3.20;;
13404;SDS011;6773;51.192;7.024;2022-11-15T08:58:05;14.00;;;9.50;;
13404;SDS011;6773;51.192;7.024;2022-11-15T09:00:32;4.07;;;3.17;;
13404;SDS011;6773;51.192;7.024;2022-11-15T09:02:58;2.63;;;2.43;;
13404;SDS011;6773;51.192;7.024;2022-11-15T09:05:24;2.40;;;2.20;;
13404;SDS011;6773;51.192;7.024;2022-11-15T09:07:53;2.33;;;2.07;;
13404;SDS011;6773;51.192;7.024;2022-11-15T09:10:20;2.73;;;2.17;;
13404;SDS011;6773;51.192;7.024;2022-11-15T09:12:46;3.07;;;2.00;;
13404;SDS011;6773;51.192;7.024;2022-11-15T09:15:13;4.60;;;2.70;;
13404;SDS011;6773;51.192;7.024;2022-11-15T09:17:40;2.80;;;2.40;;
13404;SDS011;6773;51.192;7.024;2022-11-15T09:20:06;2.20;;;2.00;;
13404;SDS011;6773;51.192;7.024;2022-11-15T09:22:32;3.03;;;2.50;;
13404;SDS011;6773;51.192;7.024;2022-11-15T09:24:58;3.80;;;2.70;;
13404;SDS011;6773;51.192;7.024;2022-11-15T09:27:28;3.90;;;2.60;;
13404;SDS011;6773;51.192;7.024;2022-11-15T09:29:54;3.07;;;2.57;;
13404;SDS011;6773;51.192;7.024;2022-11-15T09:32:20;4.93;;;3.67;;
13404;SDS011;6773;51.192;7.024;2022-11-15T09:34:47;6.57;;;4.23;;
13404;SDS011;6773;51.192;7.024;2022-11-15T09:37:13;14.43;;;7.60;;
13404;SDS011;6773;51.192;7.024;2022-11-15T09:39:39;4.83;;;2.77;;
13404;SDS011;6773;51.192;7.024;2022-11-15T09:44:57;9.63;;;6.53;;
13404;SDS011;6773;51.192;7.024;2022-11-15T09:50:11;6.10;;;3.00;;
13404;SDS011;6773;51.192;7.024;2022-11-15T09:52:42;10.27;;;4.70;;
13404;SDS011;6773;51.192;7.024;2022-11-15T09:55:12;10.47;;;7.17;;
13404;SDS011;6773;51.192;7.024;2022-11-15T09:58:03;9.17;;;4.40;;
13404;SDS011;6773;51.192;7.024;2022-11-15T10:01:17;3.03;;;1.57;;
13404;SDS011;6773;51.192;7.024;2022-11-15T10:03:56;2.77;;;1.70;;
13404;SDS011;6773;51.192;7.024;2022-11-15T10:06:25;2.43;;;1.87;;
13404;SDS011;6773;51.192;7.024;2022-11-15T10:08:56;1.90;;;1.77;;
13404;SDS011;6773;51.192;7.024;2022-11-15T10:11:27;2.33;;;1.90;;
13404;SDS011;6773;51.192;7.024;2022-11-15T10:13:58;2.30;;;1.70;;
13404;SDS011;6773;51.192;7.024;2022-11-15T10:27:34;2.30;;;1.87;;
13404;SDS011;6773;51.192;7.024;2022-11-15T10:30:00;3.47;;;2.10;;
13404;SDS011;6773;51.192;7.024;2022-11-15T10:32:26;3.17;;;2.00;;
13404;SDS011;6773;51.192;7.024;2022-11-15T10:34:52;2.13;;;1.63;;
13404;SDS011;6773;51.192;7.024;2022-11-15T10:37:28;2.90;;;1.97;;
13404;SDS011;6773;51.192;7.024;2022-11-15T10:40:02;2.47;;;2.23;;
13404;SDS011;6773;51.192;7.024;2022-11-15T10:42:39;2.90;;;1.90;;
13404;SDS011;6773;51.192;7.024;2022-11-15T10:45:22;2.50;;;1.57;;
13404;SDS011;6773;51.192;7.024;2022-11-15T10:47:53;2.60;;;2.40;;
13404;SDS011;6773;51.192;7.024;2022-11-15T10:50:38;1.87;;;1.50;;
13404;SDS011;6773;51.192;7.024;2022-11-15T10:55:57;2.00;;;1.77;;
13404;SDS011;6773;51.192;7.024;2022-11-15T10:58:30;1.80;;;1.70;;
13404;SDS011;6773;51.192;7.024;2022-11-15T11:01:13;1.80;;;1.60;;
13404;SDS011;6773;51.192;7.024;2022-11-15T11:03:39;2.47;;;1.60;;
13404;SDS011;6773;51.192;7.024;2022-11-15T11:06:11;2.10;;;1.47;;
13404;SDS011;6773;51.192;7.024;2022-11-15T11:08:38;3.03;;;1.60;;
13404;SDS011;6773;51.192;7.024;2022-11-15T11:11:05;1.77;;;1.63;;
13404;SDS011;6773;51.192;7.024;2022-11-15T11:13:36;7.03;;;4.37;;
13404;SDS011;6773;51.192;7.024;2022-11-15T11:21:26;1.70;;;1.40;;
13404;SDS011;6773;51.192;7.024;2022-11-15T11:24:10;2.00;;;1.30;;
13404;SDS011;6773;51.192;7.024;2022-11-15T11:35:22;2.17;;;1.50;;
13404;SDS011;6773;51.192;7.024;2022-11-15T11:38:25;5.33;;;1.40;;
13404;SDS011;6773;51.192;7.024;2022-11-15T11:41:04;3.13;;;1.20;;
13404;SDS011;6773;51.192;7.024;2022-11-15T11:46:27;1.30;;;1.20;;
13404;SDS011;6773;51.192;7.024;2022-11-15T11:52:05;1.50;;;1.20;;
13404;SDS011;6773;51.192;7.024;2022-11-15T11:57:29;2.77;;;1.60;;
13404;SDS011;6773;51.192;7.024;2022-11-15T12:00:12;2.37;;;1.93;;
13404;SDS011;6773;51.192;7.024;2022-11-15T12:02:50;4.00;;;1.30;;
13404;SDS011;6773;51.192;7.024;2022-11-15T12:05:35;1.30;;;1.20;;
13404;SDS011;6773;51.192;7.024;2022-11-15T12:11:09;2.10;;;1.40;;
13404;SDS011;6773;51.192;7.024;2022-11-15T12:13:42;3.70;;;2.73;;
13404;SDS011;6773;51.192;7.024;2022-11-15T12:16:17;2.53;;;1.67;;
13404;SDS011;6773;51.192;7.024;2022-11-15T12:18:50;1.70;;;1.50;;
13404;SDS011;6773;51.192;7.024;2022-11-15T12:23:53;3.10;;;2.20;;
13404;SDS011;6773;51.192;7.024;2022-11-15T12:26:26;2.27;;;1.50;;
13404;SDS011;6773;51.192;7.024;2022-11-15T12:28:58;1.20;;;1.10;;
13404;SDS011;6773;51.192;7.024;2022-11-15T12:34:00;1.70;;;1.40;;
13404;SDS011;6773;51.192;7.024;2022-11-15T12:36:38;2.63;;;1.50;;
13404;SDS011;6773;51.192;7.024;2022-11-15T12:39:09;2.40;;;1.80;;
13404;SDS011;6773;51.192;7.024;2022-11-15T12:41:37;1.47;;;1.20;;
13404;SDS011;6773;51.192;7.024;2022-11-15T12:44:03;3.10;;;1.33;;
13404;SDS011;6773;51.192;7.024;2022-11-15T13:17:40;2.77;;;1.30;;
13404;SDS011;6773;51.192;7.024;2022-11-15T13:28:11;1.70;;;1.23;;
13404;SDS011;6773;51.192;7.024;2022-11-15T13:30:49;3.20;;;1.30;;
13404;SDS011;6773;51.192;7.024;2022-11-15T13:33:18;2.17;;;1.10;;
13404;SDS011;6773;51.192;7.024;2022-11-15T13:35:51;3.37;;;1.23;;
13404;SDS011;6773;51.192;7.024;2022-11-15T13:40:49;2.20;;;1.30;;
13404;SDS011;6773;51.192;7.024;2022-11-15T13:48:57;2.03;;;1.40;;
13404;SDS011;6773;51.192;7.024;2022-11-15T13:54:07;2.50;;;1.90;;
13404;SDS011;6773;51.192;7.024;2022-11-15T13:56:34;4.27;;;1.70;;
13404;SDS011;6773;51.192;7.024;2022-11-15T13:59:07;2.80;;;1.53;;
13404;SDS011;6773;51.192;7.024;2022-11-15T14:01:34;2.87;;;1.57;;
13404;SDS011;6773;51.192;7.024;2022-11-15T14:04:00;2.93;;;1.60;;
13404;SDS011;6773;51.192;7.024;2022-11-15T14:06:28;2.87;;;1.50;;
13404;SDS011;6773;51.192;7.024;2022-11-15T14:08:59;6.17;;;1.80;;
13404;SDS011;6773;51.192;7.024;2022-11-15T14:11:29;1.83;;;1.50;;
13404;SDS011;6773;51.192;7.024;2022-11-15T14:16:54;3.93;;;2.73;;
13404;SDS011;6773;51.192;7.024;2022-11-15T14:24:32;3.63;;;2.50;;
13404;SDS011;6773;51.192;7.024;2022-11-15T14:27:15;3.00;;;1.93;;
13404;SDS011;6773;51.192;7.024;2022-11-15T14:29:52;4.67;;;2.23;;
13404;SDS011;6773;51.192;7.024;2022-11-15T14:32:19;5.47;;;2.17;;
13404;SDS011;6773;51.192;7.024;2022-11-15T14:34:47;2.10;;;1.90;;
13404;SDS011;6773;51.192;7.024;2022-11-15T14:37:27;2.57;;;2.10;;
13404;SDS011;6773;51.192;7.024;2022-11-15T14:39:58;2.27;;;1.83;;
13404;SDS011;6773;51.192;7.024;2022-11-15T14:42:23;2.43;;;2.20;;
13404;SDS011;6773;51.192;7.024;2022-11-15T14:44:50;3.70;;;2.00;;
13404;SDS011;6773;51.192;7.024;2022-11-15T14:47:16;2.37;;;2.00;;
13404;SDS011;6773;51.192;7.024;2022-11-15T14:49:42;3.23;;;2.00;;
13404;SDS011;6773;51.192;7.024;2022-11-15T14:52:30;2.73;;;2.00;;
13404;SDS011;6773;51.192;7.024;2022-11-15T14:55:01;3.00;;;2.27;;
13404;SDS011;6773;51.192;7.024;2022-11-15T14:57:29;3.30;;;2.00;;
13404;SDS011;6773;51.192;7.024;2022-11-15T14:59:55;2.20;;;2.00;;
13404;SDS011;6773;51.192;7.024;2022-11-15T15:02:25;3.10;;;2.00;;
13404;SDS011;6773;51.192;7.024;2022-11-15T15:04:52;4.27;;;2.10;;
13404;SDS011;6773;51.192;7.024;2022-11-15T15:07:18;2.27;;;1.93;;
13404;SDS011;6773;51.192;7.024;2022-11-15T15:09:45;2.07;;;1.87;;
13404;SDS011;6773;51.192;7.024;2022-11-15T15:12:13;4.50;;;1.87;;
13404;SDS011;6773;51.192;7.024;2022-11-15T15:14:47;3.47;;;2.40;;
13404;SDS011;6773;51.192;7.024;2022-11-15T15:17:14;2.53;;;2.17;;
13404;SDS011;6773;51.192;7.024;2022-11-15T15:19:40;2.47;;;2.13;;
13404;SDS011;6773;51.192;7.024;2022-11-15T15:22:09;2.30;;;2.10;;
13404;SDS011;6773;51.192;7.024;2022-11-15T15:24:41;1.93;;;1.73;;
13404;SDS011;6773;51.192;7.024;2022-11-15T15:27:07;2.20;;;2.00;;
13404;SDS011;6773;51.192;7.024;2022-11-15T15:29:33;2.53;;;1.80;;
13404;SDS011;6773;51.192;7.024;2022-11-15T15:31:58;2.57;;;2.03;;
13404;SDS011;6773;51.192;7.024;2022-11-15T15:34:24;3.37;;;1.90;;
13404;SDS011;6773;51.192;7.024;2022-11-15T15:37:05;2.53;;;1.90;;
13404;SDS011;6773;51.192;7.024;2022-11-15T15:39:32;2.30;;;1.90;;
13404;SDS011;6773;51.192;7.024;2022-11-15T15:41:58;3.20;;;2.20;;
13404;SDS011;6773;51.192;7.024;2022-11-15T15:44:23;3.00;;;2.30;;
13404;SDS011;6773;51.192;7.024;2022-11-15T15:46:49;2.17;;;1.97;;
13404;SDS011;6773;51.192;7.024;2022-11-15T15:49:15;3.33;;;2.60;;
13404;SDS011;6773;51.192;7.024;2022-11-15T15:51:41;3.73;;;2.30;;
13404;SDS011;6773;51.192;7.024;2022-11-15T15:54:06;2.73;;;1.77;;
13404;SDS011;6773;51.192;7.024;2022-11-15T15:56:32;2.57;;;2.00;;
13404;SDS011;6773;51.192;7.024;2022-11-15T15:58:58;2.30;;;2.10;;
13404;SDS011;6773;51.192;7.024;2022-11-15T16:01:23;3.43;;;2.03;;
13404;SDS011;6773;51.192;7.024;2022-11-15T16:03:49;2.53;;;1.90;;
13404;SDS011;6773;51.192;7.024;2022-11-15T16:09:16;2.90;;;1.80;;
13404;SDS011;6773;51.192;7.024;2022-11-15T16:11:44;2.00;;;1.90;;
13404;SDS011;6773;51.192;7.024;2022-11-15T16:14:11;4.40;;;3.63;;
13404;SDS011;6773;51.192;7.024;2022-11-15T16:16:37;4.27;;;2.27;;
13404;SDS011;6773;51.192;7.024;2022-11-15T16:19:03;4.20;;;1.97;;
13404;SDS011;6773;51.192;7.024;2022-11-15T16:21:29;2.80;;;1.90;;
13404;SDS011;6773;51.192;7.024;2022-11-15T16:23:55;3.13;;;2.30;;
13404;SDS011;6773;51.192;7.024;2022-11-15T16:26:22;3.13;;;2.30;;
13404;SDS011;6773;51.192;7.024;2022-11-15T16:28:50;4.07;;;2.37;;
13404;SDS011;6773;51.192;7.024;2022-11-15T16:31:16;2.20;;;2.00;;
13404;SDS011;6773;51.192;7.024;2022-11-15T16:33:44;3.80;;;2.50;;
13404;SDS011;6773;51.192;7.024;2022-11-15T16:38:47;3.17;;;2.20;;
13404;SDS011;6773;51.192;7.024;2022-11-15T16:41:13;2.47;;;2.03;;
13404;SDS011;6773;51.192;7.024;2022-11-15T16:43:40;3.87;;;2.20;;
13404;SDS011;6773;51.192;7.024;2022-11-15T16:46:07;3.70;;;1.80;;
13404;SDS011;6773;51.192;7.024;2022-11-15T16:48:38;3.03;;;2.07;;
13404;SDS011;6773;51.192;7.024;2022-11-15T16:51:04;2.47;;;2.00;;
13404;SDS011;6773;51.192;7.024;2022-11-15T16:53:30;2.53;;;2.30;;
13404;SDS011;6773;51.192;7.024;2022-11-15T16:55:56;3.93;;;2.10;;
13404;SDS011;6773;51.192;7.024;2022-11-15T16:58:22;4.77;;;2.43;;
13404;SDS011;6773;51.192;7.024;2022-11-15T17:00:54;1.90;;;1.73;;
13404;SDS011;6773;51.192;7.024;2022-11-15T17:03:21;2.43;;;2.00;;
13404;SDS011;6773;51.192;7.024;2022-11-15T17:05:48;2.83;;;2.00;;
13404;SDS011;6773;51.192;7.024;2022-11-15T17:08:14;2.50;;;2.30;;
13404;SDS011;6773;51.192;7.024;2022-11-15T17:10:40;2.17;;;1.97;;
13404;SDS011;6773;51.192;7.024;2022-11-15T17:13:07;3.27;;;2.20;;
13404;SDS011;6773;51.192;7.024;2022-11-15T17:15:35;2.57;;;2.00;;
13404;SDS011;6773;51.192;7.024;2022-11-15T17:18:01;2.33;;;1.80;;
13404;SDS011;6773;51.192;7.024;2022-11-15T17:20:27;2.00;;;1.80;;
13404;SDS011;6773;51.192;7.024;2022-11-15T17:22:53;3.07;;;2.03;;
13404;SDS011;6773;51.192;7.024;2022-11-15T17:25:19;4.17;;;1.90;;
13404;SDS011;6773;51.192;7.024;2022-11-15T17:27:45;2.20;;;2.00;;
13404;SDS011;6773;51.192;7.024;2022-11-15T17:30:11;2.67;;;2.10;;
13404;SDS011;6773;51.192;7.024;2022-11-15T17:32:39;5.37;;;2.20;;